Royal, NE (68773)

10:01 AM CST on February 07, 2016 (GMT -0600)
Ewing | | Change Station
CLOSE
Current Station
Personal Weather Station
Location: Ewing, NE
Elevation: 1929 ft
Nearby Weather Stations
Active Advisory: Wind Advisory

Elev 1929 ft 42.24 °N, 98.24 °W | Updated 1 minute ago

Partly Cloudy
Partly Cloudy
38.9 °F
Feels Like 30 °F
N
16.0
Wind Variable Wind from WNW
Gusts 24.0 mph

Today
High -- | Low -- °F
--% Chance of Precip.
Yesterday
High -- | Low -- °F
Precip. -- in
Pressure 30.02 in
Visibility 10.0 miles
Clouds Scattered Clouds 12000 ft
Windchill 30 °F
Dew Point 26 °F
Humidity 59%
Rainfall 0.00 in
Snow Depth Not available.
7:39 AM 5:54 PM
Waning Crescent, 1% visible
METAR KONL 071535Z AUTO 29020G26KT 10SM SCT120 04/M05 A3002 RMK AO2 T00371055
Pressure 30.02 in
Visibility 10.0 miles
Clouds Scattered Clouds 12000 ft
Windchill 30 °F
Dew Point 26 °F
Humidity 59%
Rainfall 0.00 in
Snow Depth Not available.
7:39 AM 5:54 PM
Waning Crescent, 1% visible
METAR KONL 071535Z AUTO 29020G26KT 10SM SCT120 04/M05 A3002 RMK AO2 T00371055

10-Day Weather Forecast

Almanac

Astronomy

Feb. 07, 2016 Rise Set
Actual Time
Civil Twilight
Nautical Twilight
Astronomical Twilight
Moon
Length of Visible Light
Length of Day
Tomorrow will be .
, % of the Moon is Illuminated

Today's Extremes

State Highs State Lows

Community

WunderPhotos

Upload Photos

1,891,218 photos uploaded!

WunderBlog® & News

Nearby

Air Quality

  Air Quality AQ Index Pollutant
Not available.

Snow Depth

Station Depth Elevation

Earthquake Activity

City Distance Mag. Time & Date
Minimum magnitude displayed is 2.5.

Coastal Water Temperatures

Place Temperature

Stations

Nearby Weather Stations

Station Location Temp. Windchill Dew Point Humidity Wind Precip. Elev Updated Type
                   

Watches & Warnings

Wind Advisory
Issued: 3:22 AM CST Feb. 7, 2016 – National Weather Service

... Wind Advisory remains in effect from noon today to 9 PM CST
this evening...

* timing... northwest winds will increase early this afternoon and
continue through the evening.

* Winds... northwest winds of 25 to 35 mph with gusts to 45 mph.

* Impacts... winds of this magnitude will be hazardous to
motorists... especially those with high profile vehicles. In
addition... a few snow showers may develop later this afternoon
into evening... potentially leading to areas of blowing snow.
This may create hazardous travel conditions across the
area... especially Interstate 29.

Precautionary/preparedness actions...

A Wind Advisory means that sustained wind speeds between 30 to
39 mph or gusts between 45 to 57 mph are expected. Winds this
strong can make driving difficult... especially for high profile
vehicles. Use extra caution.